sensor_id;sensor_type;location;lat;lon;timestamp;pressure;altitude;pressure_sealevel;temperature;humidity
74218;BME280;62579;47.288;18.646;2023-03-01T00:00:11;100979.66;;;4.27;73.46
74218;BME280;62579;47.288;18.646;2023-03-01T00:02:37;100979.47;;;4.34;73.33
74218;BME280;62579;47.288;18.646;2023-03-01T00:05:03;100977.13;;;4.36;73.49
74218;BME280;62579;47.288;18.646;2023-03-01T00:07:28;100974.84;;;4.34;73.18
74218;BME280;62579;47.288;18.646;2023-03-01T00:09:54;100974.31;;;4.39;73.06
74218;BME280;62579;47.288;18.646;2023-03-01T00:12:19;100970.78;;;4.42;72.93
74218;BME280;62579;47.288;18.646;2023-03-01T00:14:45;100977.00;;;4.39;72.91
74218;BME280;62579;47.288;18.646;2023-03-01T00:17:10;100975.31;;;4.45;72.71
74218;BME280;62579;47.288;18.646;2023-03-01T00:19:36;100978.56;;;4.53;72.44
74218;BME280;62579;47.288;18.646;2023-03-01T00:22:01;100980.84;;;4.54;72.73
74218;BME280;62579;47.288;18.646;2023-03-01T00:24:26;100978.66;;;4.49;72.50
74218;BME280;62579;47.288;18.646;2023-03-01T00:26:53;100981.72;;;4.51;72.45
74218;BME280;62579;47.288;18.646;2023-03-01T00:29:21;100986.75;;;4.49;73.00
74218;BME280;62579;47.288;18.646;2023-03-01T00:31:47;100979.25;;;4.57;73.12
74218;BME280;62579;47.288;18.646;2023-03-01T00:34:12;100984.94;;;4.46;72.96
74218;BME280;62579;47.288;18.646;2023-03-01T00:36:38;100981.03;;;4.47;73.20
74218;BME280;62579;47.288;18.646;2023-03-01T00:39:05;100975.84;;;4.40;73.32
74218;BME280;62579;47.288;18.646;2023-03-01T00:41:31;100970.25;;;4.47;72.85
74218;BME280;62579;47.288;18.646;2023-03-01T00:43:56;100965.41;;;4.55;72.52
74218;BME280;62579;47.288;18.646;2023-03-01T00:46:24;100970.56;;;4.49;72.51
74218;BME280;62579;47.288;18.646;2023-03-01T00:48:50;100975.56;;;4.51;72.67
74218;BME280;62579;47.288;18.646;2023-03-01T00:51:18;100967.66;;;4.44;72.67
74218;BME280;62579;47.288;18.646;2023-03-01T00:53:45;100965.72;;;4.44;72.97
74218;BME280;62579;47.288;18.646;2023-03-01T00:56:13;100968.94;;;4.39;73.47
74218;BME280;62579;47.288;18.646;2023-03-01T00:58:39;100964.38;;;4.36;73.74
74218;BME280;62579;47.288;18.646;2023-03-01T01:01:10;100958.16;;;4.39;73.46
74218;BME280;62579;47.288;18.646;2023-03-01T01:03:54;100949.22;;;4.42;73.21
74218;BME280;62579;47.288;18.646;2023-03-01T01:06:36;100951.44;;;4.31;74.00
74218;BME280;62579;47.288;18.646;2023-03-01T01:09:03;100957.88;;;4.21;74.19
74218;BME280;62579;47.288;18.646;2023-03-01T01:11:30;100952.97;;;4.03;74.46
74218;BME280;62579;47.288;18.646;2023-03-01T01:13:56;100945.97;;;4.06;74.11
74218;BME280;62579;47.288;18.646;2023-03-01T01:16:24;100947.97;;;4.02;74.41
74218;BME280;62579;47.288;18.646;2023-03-01T01:18:49;100946.28;;;4.08;73.34
74218;BME280;62579;47.288;18.646;2023-03-01T01:21:17;100943.28;;;4.06;73.81
74218;BME280;62579;47.288;18.646;2023-03-01T01:23:43;100948.41;;;4.00;74.22
74218;BME280;62579;47.288;18.646;2023-03-01T01:26:18;100946.66;;;3.94;73.63
74218;BME280;62579;47.288;18.646;2023-03-01T01:28:45;100934.56;;;3.86;74.32
74218;BME280;62579;47.288;18.646;2023-03-01T01:31:11;100938.91;;;3.96;74.12
74218;BME280;62579;47.288;18.646;2023-03-01T01:33:36;100933.44;;;3.99;73.83
74218;BME280;62579;47.288;18.646;2023-03-01T01:36:03;100932.66;;;3.99;74.00
74218;BME280;62579;47.288;18.646;2023-03-01T01:38:28;100928.63;;;4.07;73.26
74218;BME280;62579;47.288;18.646;2023-03-01T01:40:54;100929.41;;;4.20;72.48
74218;BME280;62579;47.288;18.646;2023-03-01T01:43:28;100925.97;;;4.19;72.83
74218;BME280;62579;47.288;18.646;2023-03-01T01:46:10;100921.34;;;4.20;73.48
74218;BME280;62579;47.288;18.646;2023-03-01T01:48:43;100920.47;;;3.94;74.99
74218;BME280;62579;47.288;18.646;2023-03-01T01:51:13;100916.75;;;4.04;76.13
74218;BME280;62579;47.288;18.646;2023-03-01T01:53:39;100924.47;;;3.90;78.12
74218;BME280;62579;47.288;18.646;2023-03-01T01:56:08;100913.78;;;3.86;78.80
74218;BME280;62579;47.288;18.646;2023-03-01T01:58:35;100904.25;;;3.98;79.08
74218;BME280;62579;47.288;18.646;2023-03-01T02:01:01;100902.81;;;3.93;79.44
74218;BME280;62579;47.288;18.646;2023-03-01T02:03:31;100905.44;;;3.81;78.97
74218;BME280;62579;47.288;18.646;2023-03-01T02:06:06;100901.72;;;3.91;79.10
74218;BME280;62579;47.288;18.646;2023-03-01T02:08:38;100909.22;;;3.83;79.34
74218;BME280;62579;47.288;18.646;2023-03-01T02:11:05;100903.03;;;3.99;78.68
74218;BME280;62579;47.288;18.646;2023-03-01T02:13:32;100905.41;;;3.97;78.14
74218;BME280;62579;47.288;18.646;2023-03-01T02:15:59;100906.22;;;3.81;78.47
74218;BME280;62579;47.288;18.646;2023-03-01T02:18:25;100892.78;;;3.94;78.62
74218;BME280;62579;47.288;18.646;2023-03-01T02:23:41;100895.72;;;3.71;79.48
74218;BME280;62579;47.288;18.646;2023-03-01T02:26:35;100894.19;;;3.70;78.60
74218;BME280;62579;47.288;18.646;2023-03-01T02:29:03;100903.94;;;3.63;78.29
74218;BME280;62579;47.288;18.646;2023-03-01T02:31:30;100899.09;;;3.58;78.13
74218;BME280;62579;47.288;18.646;2023-03-01T02:34:14;100898.31;;;3.58;78.77
74218;BME280;62579;47.288;18.646;2023-03-01T02:36:52;100896.06;;;3.56;79.29
74218;BME280;62579;47.288;18.646;2023-03-01T02:39:23;100893.44;;;3.69;79.24
74218;BME280;62579;47.288;18.646;2023-03-01T02:41:52;100883.44;;;3.70;78.75
74218;BME280;62579;47.288;18.646;2023-03-01T02:44:19;100893.94;;;3.64;79.90
74218;BME280;62579;47.288;18.646;2023-03-01T02:46:50;100883.69;;;3.59;80.37
74218;BME280;62579;47.288;18.646;2023-03-01T02:49:21;100886.97;;;3.67;80.12
74218;BME280;62579;47.288;18.646;2023-03-01T02:56:59;100879.84;;;3.60;79.78
74218;BME280;62579;47.288;18.646;2023-03-01T02:59:27;100876.31;;;3.63;80.17
74218;BME280;62579;47.288;18.646;2023-03-01T03:01:54;100886.62;;;3.64;80.54
74218;BME280;62579;47.288;18.646;2023-03-01T03:04:19;100876.72;;;3.61;80.72
74218;BME280;62579;47.288;18.646;2023-03-01T03:06:47;100880.91;;;3.62;80.65
74218;BME280;62579;47.288;18.646;2023-03-01T03:09:14;100875.56;;;3.46;80.94
74218;BME280;62579;47.288;18.646;2023-03-01T03:11:39;100879.41;;;3.45;81.31
74218;BME280;62579;47.288;18.646;2023-03-01T03:14:09;100869.94;;;3.41;81.04
74218;BME280;62579;47.288;18.646;2023-03-01T03:16:46;100868.31;;;3.43;81.08
74218;BME280;62579;47.288;18.646;2023-03-01T03:19:12;100874.47;;;3.44;81.52
74218;BME280;62579;47.288;18.646;2023-03-01T03:21:38;100867.91;;;3.45;81.70
74218;BME280;62579;47.288;18.646;2023-03-01T03:24:04;100862.19;;;3.43;81.83
74218;BME280;62579;47.288;18.646;2023-03-01T03:26:30;100859.56;;;3.39;81.94
74218;BME280;62579;47.288;18.646;2023-03-01T03:28:56;100860.75;;;3.54;81.41
74218;BME280;62579;47.288;18.646;2023-03-01T03:31:22;100854.69;;;3.50;81.67
74218;BME280;62579;47.288;18.646;2023-03-01T03:33:47;100860.19;;;3.47;82.03
74218;BME280;62579;47.288;18.646;2023-03-01T03:36:21;100855.53;;;3.47;82.16
74218;BME280;62579;47.288;18.646;2023-03-01T03:38:47;100852.19;;;3.43;82.19
74218;BME280;62579;47.288;18.646;2023-03-01T03:41:13;100849.12;;;3.57;81.55
74218;BME280;62579;47.288;18.646;2023-03-01T03:43:39;100851.06;;;3.57;81.70
74218;BME280;62579;47.288;18.646;2023-03-01T03:46:06;100846.06;;;3.72;81.53
74218;BME280;62579;47.288;18.646;2023-03-01T03:48:40;100842.41;;;3.66;81.50
74218;BME280;62579;47.288;18.646;2023-03-01T03:51:06;100849.97;;;3.54;81.62
74218;BME280;62579;47.288;18.646;2023-03-01T03:53:32;100846.44;;;3.57;81.69
74218;BME280;62579;47.288;18.646;2023-03-01T03:55:58;100847.28;;;3.54;81.67
74218;BME280;62579;47.288;18.646;2023-03-01T03:58:42;100844.72;;;3.63;81.46
74218;BME280;62579;47.288;18.646;2023-03-01T04:01:08;100843.03;;;3.70;80.97
74218;BME280;62579;47.288;18.646;2023-03-01T04:03:52;100843.28;;;3.75;81.03
74218;BME280;62579;47.288;18.646;2023-03-01T04:06:19;100845.09;;;3.66;81.30
74218;BME280;62579;47.288;18.646;2023-03-01T04:08:45;100844.50;;;3.58;81.18
74218;BME280;62579;47.288;18.646;2023-03-01T04:11:11;100851.41;;;3.59;81.15
74218;BME280;62579;47.288;18.646;2023-03-01T04:13:55;100842.44;;;3.49;81.31
74218;BME280;62579;47.288;18.646;2023-03-01T04:16:21;100849.72;;;3.65;81.13
74218;BME280;62579;47.288;18.646;2023-03-01T04:18:47;100844.03;;;3.76;80.81
74218;BME280;62579;47.288;18.646;2023-03-01T04:21:12;100842.25;;;3.85;80.23
74218;BME280;62579;47.288;18.646;2023-03-01T04:23:38;100847.34;;;3.96;79.67
74218;BME280;62579;47.288;18.646;2023-03-01T04:26:04;100851.63;;;3.93;79.62
74218;BME280;62579;47.288;18.646;2023-03-01T04:28:36;100846.59;;;3.95;80.09
74218;BME280;62579;47.288;18.646;2023-03-01T04:31:10;100839.16;;;3.99;80.29
74218;BME280;62579;47.288;18.646;2023-03-01T04:33:42;100842.62;;;4.00;79.86
74218;BME280;62579;47.288;18.646;2023-03-01T04:36:08;100853.19;;;4.07;79.81
74218;BME280;62579;47.288;18.646;2023-03-01T04:38:35;100853.00;;;4.14;79.30
74218;BME280;62579;47.288;18.646;2023-03-01T04:41:03;100846.75;;;4.17;79.41
74218;BME280;62579;47.288;18.646;2023-03-01T04:43:29;100848.28;;;4.18;79.80
74218;BME280;62579;47.288;18.646;2023-03-01T04:45:54;100847.09;;;4.19;80.28
74218;BME280;62579;47.288;18.646;2023-03-01T04:48:19;100844.06;;;4.17;80.43
74218;BME280;62579;47.288;18.646;2023-03-01T04:50:44;100843.63;;;4.18;80.15
74218;BME280;62579;47.288;18.646;2023-03-01T04:53:10;100850.25;;;4.30;79.61
74218;BME280;62579;47.288;18.646;2023-03-01T04:55:35;100841.72;;;4.32;79.48
74218;BME280;62579;47.288;18.646;2023-03-01T04:58:03;100840.87;;;4.35;79.31
74218;BME280;62579;47.288;18.646;2023-03-01T05:00:28;100837.50;;;4.31;79.56
74218;BME280;62579;47.288;18.646;2023-03-01T05:02:59;100839.88;;;4.16;80.21
74218;BME280;62579;47.288;18.646;2023-03-01T05:05:30;100844.06;;;4.17;80.32
74218;BME280;62579;47.288;18.646;2023-03-01T05:07:58;100846.31;;;4.06;81.00
74218;BME280;62579;47.288;18.646;2023-03-01T05:10:25;100845.09;;;4.07;81.03
74218;BME280;62579;47.288;18.646;2023-03-01T05:12:51;100843.72;;;4.02;81.51
74218;BME280;62579;47.288;18.646;2023-03-01T05:15:18;100843.72;;;4.02;81.80
74218;BME280;62579;47.288;18.646;2023-03-01T05:17:44;100848.81;;;4.13;81.15
74218;BME280;62579;47.288;18.646;2023-03-01T05:20:10;100839.88;;;4.29;80.43
74218;BME280;62579;47.288;18.646;2023-03-01T05:22:36;100848.34;;;4.14;80.93
74218;BME280;62579;47.288;18.646;2023-03-01T05:25:02;100844.94;;;4.14;81.00
74218;BME280;62579;47.288;18.646;2023-03-01T05:27:28;100846.87;;;4.13;80.82
74218;BME280;62579;47.288;18.646;2023-03-01T05:29:55;100850.44;;;4.23;80.29
74218;BME280;62579;47.288;18.646;2023-03-01T05:32:20;100852.03;;;4.20;80.41
74218;BME280;62579;47.288;18.646;2023-03-01T05:34:46;100851.94;;;4.11;80.82
74218;BME280;62579;47.288;18.646;2023-03-01T05:37:12;100846.47;;;4.28;80.08
74218;BME280;62579;47.288;18.646;2023-03-01T05:39:38;100853.56;;;4.21;80.21
74218;BME280;62579;47.288;18.646;2023-03-01T05:42:04;100852.34;;;4.10;80.49
74218;BME280;62579;47.288;18.646;2023-03-01T05:44:29;100856.88;;;4.13;80.43
74218;BME280;62579;47.288;18.646;2023-03-01T05:46:55;100859.47;;;4.16;80.26
74218;BME280;62579;47.288;18.646;2023-03-01T05:49:21;100854.94;;;4.13;80.41
74218;BME280;62579;47.288;18.646;2023-03-01T05:51:52;100854.03;;;4.33;78.83
74218;BME280;62579;47.288;18.646;2023-03-01T05:54:20;100853.38;;;4.41;78.50
74218;BME280;62579;47.288;18.646;2023-03-01T05:56:45;100857.03;;;4.35;78.78
74218;BME280;62579;47.288;18.646;2023-03-01T05:59:11;100860.78;;;4.24;79.16
74218;BME280;62579;47.288;18.646;2023-03-01T06:01:37;100864.66;;;4.23;79.25
74218;BME280;62579;47.288;18.646;2023-03-01T06:04:04;100859.81;;;4.31;78.71
74218;BME280;62579;47.288;18.646;2023-03-01T06:06:29;100868.88;;;4.24;79.16
74218;BME280;62579;47.288;18.646;2023-03-01T06:08:58;100864.34;;;4.21;79.18
74218;BME280;62579;47.288;18.646;2023-03-01T06:11:23;100862.62;;;4.28;78.66
74218;BME280;62579;47.288;18.646;2023-03-01T06:13:49;100872.09;;;4.19;79.26
74218;BME280;62579;47.288;18.646;2023-03-01T06:16:14;100868.44;;;4.26;79.52
74218;BME280;62579;47.288;18.646;2023-03-01T06:18:40;100874.50;;;4.30;79.06
74218;BME280;62579;47.288;18.646;2023-03-01T06:21:06;100870.59;;;4.18;79.57
74218;BME280;62579;47.288;18.646;2023-03-01T06:23:32;100877.53;;;4.03;80.53
74218;BME280;62579;47.288;18.646;2023-03-01T06:25:58;100871.75;;;4.17;79.93
74218;BME280;62579;47.288;18.646;2023-03-01T06:28:23;100877.37;;;4.23;79.78
74218;BME280;62579;47.288;18.646;2023-03-01T06:30:52;100872.03;;;4.36;78.87
74218;BME280;62579;47.288;18.646;2023-03-01T06:33:18;100877.41;;;4.36;78.55
74218;BME280;62579;47.288;18.646;2023-03-01T06:35:46;100873.22;;;4.35;78.66
74218;BME280;62579;47.288;18.646;2023-03-01T06:38:11;100885.50;;;4.36;79.18
74218;BME280;62579;47.288;18.646;2023-03-01T06:40:40;100885.50;;;4.36;79.00
74218;BME280;62579;47.288;18.646;2023-03-01T06:43:05;100884.94;;;4.28;78.60
74218;BME280;62579;47.288;18.646;2023-03-01T06:45:32;100881.16;;;4.25;77.70
74218;BME280;62579;47.288;18.646;2023-03-01T06:48:04;100884.84;;;4.32;78.35
74218;BME280;62579;47.288;18.646;2023-03-01T06:50:30;100880.63;;;4.31;77.85
74218;BME280;62579;47.288;18.646;2023-03-01T06:52:56;100884.50;;;4.30;78.80
74218;BME280;62579;47.288;18.646;2023-03-01T06:55:22;100883.53;;;4.36;77.75
74218;BME280;62579;47.288;18.646;2023-03-01T06:57:47;100879.16;;;4.42;76.53
74218;BME280;62579;47.288;18.646;2023-03-01T07:00:13;100888.31;;;4.45;77.11
74218;BME280;62579;47.288;18.646;2023-03-01T07:02:39;100879.72;;;4.62;75.83
74218;BME280;62579;47.288;18.646;2023-03-01T07:05:04;100878.53;;;4.63;76.41
74218;BME280;62579;47.288;18.646;2023-03-01T07:07:29;100881.84;;;4.55;76.87
74218;BME280;62579;47.288;18.646;2023-03-01T07:09:55;100889.22;;;4.67;75.85
74218;BME280;62579;47.288;18.646;2023-03-01T07:12:20;100882.94;;;4.57;76.71
74218;BME280;62579;47.288;18.646;2023-03-01T07:14:46;100877.66;;;4.54;77.30
74218;BME280;62579;47.288;18.646;2023-03-01T07:17:11;100883.91;;;4.51;76.73
74218;BME280;62579;47.288;18.646;2023-03-01T07:19:36;100887.06;;;4.62;76.74
74218;BME280;62579;47.288;18.646;2023-03-01T07:22:03;100884.22;;;4.53;76.48
74218;BME280;62579;47.288;18.646;2023-03-01T07:24:29;100887.16;;;4.58;76.48
74218;BME280;62579;47.288;18.646;2023-03-01T07:26:54;100888.13;;;4.64;76.54
74218;BME280;62579;47.288;18.646;2023-03-01T07:29:20;100883.59;;;4.61;76.63
74218;BME280;62579;47.288;18.646;2023-03-01T07:31:45;100880.81;;;4.77;74.93
74218;BME280;62579;47.288;18.646;2023-03-01T07:34:11;100880.69;;;4.68;75.92
74218;BME280;62579;47.288;18.646;2023-03-01T07:36:37;100872.72;;;4.65;74.96
74218;BME280;62579;47.288;18.646;2023-03-01T07:39:03;100890.97;;;4.86;74.65
74218;BME280;62579;47.288;18.646;2023-03-01T07:41:29;100889.00;;;4.61;74.97
74218;BME280;62579;47.288;18.646;2023-03-01T07:43:54;100888.00;;;4.55;75.14
74218;BME280;62579;47.288;18.646;2023-03-01T07:46:19;100885.44;;;4.52;75.97
74218;BME280;62579;47.288;18.646;2023-03-01T07:48:45;100884.69;;;4.64;76.41
74218;BME280;62579;47.288;18.646;2023-03-01T07:51:11;100877.78;;;4.75;75.56
74218;BME280;62579;47.288;18.646;2023-03-01T07:53:36;100876.16;;;4.65;75.23
74218;BME280;62579;47.288;18.646;2023-03-01T07:58:30;100877.66;;;4.79;75.41
74218;BME280;62579;47.288;18.646;2023-03-01T08:00:56;100879.28;;;5.02;74.77
74218;BME280;62579;47.288;18.646;2023-03-01T08:03:21;100881.56;;;4.91;75.48
74218;BME280;62579;47.288;18.646;2023-03-01T08:05:46;100879.19;;;4.93;75.06
74218;BME280;62579;47.288;18.646;2023-03-01T08:08:12;100873.47;;;4.91;74.36
74218;BME280;62579;47.288;18.646;2023-03-01T08:10:37;100873.03;;;4.79;74.81
74218;BME280;62579;47.288;18.646;2023-03-01T08:13:02;100873.12;;;5.01;75.00
74218;BME280;62579;47.288;18.646;2023-03-01T08:15:28;100858.22;;;5.22;73.81
74218;BME280;62579;47.288;18.646;2023-03-01T08:17:53;100861.47;;;5.29;74.25
74218;BME280;62579;47.288;18.646;2023-03-01T08:20:18;100871.84;;;5.06;73.80
74218;BME280;62579;47.288;18.646;2023-03-01T08:22:43;100871.31;;;4.98;75.14
74218;BME280;62579;47.288;18.646;2023-03-01T08:25:09;100862.47;;;5.10;74.38
74218;BME280;62579;47.288;18.646;2023-03-01T08:27:34;100867.66;;;4.92;75.10
74218;BME280;62579;47.288;18.646;2023-03-01T08:30:00;100868.28;;;4.96;74.19
74218;BME280;62579;47.288;18.646;2023-03-01T08:32:25;100859.09;;;5.06;74.36
74218;BME280;62579;47.288;18.646;2023-03-01T08:34:51;100864.59;;;5.15;74.27
74218;BME280;62579;47.288;18.646;2023-03-01T08:37:16;100872.88;;;5.33;73.88
74218;BME280;62579;47.288;18.646;2023-03-01T08:39:41;100857.78;;;5.23;73.45
74218;BME280;62579;47.288;18.646;2023-03-01T08:42:06;100862.66;;;5.28;72.07
74218;BME280;62579;47.288;18.646;2023-03-01T08:44:32;100856.94;;;5.26;72.34
74218;BME280;62579;47.288;18.646;2023-03-01T08:46:58;100859.84;;;5.32;71.47
74218;BME280;62579;47.288;18.646;2023-03-01T08:49:25;100857.41;;;5.46;72.10
74218;BME280;62579;47.288;18.646;2023-03-01T08:51:50;100847.31;;;5.60;72.21
74218;BME280;62579;47.288;18.646;2023-03-01T08:54:18;100846.66;;;5.68;72.73
74218;BME280;62579;47.288;18.646;2023-03-01T08:56:44;100840.28;;;5.62;71.74
74218;BME280;62579;47.288;18.646;2023-03-01T08:59:11;100851.19;;;5.71;70.96
74218;BME280;62579;47.288;18.646;2023-03-01T09:01:37;100852.69;;;5.72;71.37
74218;BME280;62579;47.288;18.646;2023-03-01T09:04:03;100842.31;;;5.71;71.22
74218;BME280;62579;47.288;18.646;2023-03-01T09:06:33;100843.63;;;5.66;70.95
74218;BME280;62579;47.288;18.646;2023-03-01T09:08:59;100841.28;;;5.90;70.80
74218;BME280;62579;47.288;18.646;2023-03-01T09:11:24;100830.94;;;5.88;70.30
74218;BME280;62579;47.288;18.646;2023-03-01T09:13:50;100834.44;;;5.98;69.37
74218;BME280;62579;47.288;18.646;2023-03-01T09:16:18;100836.53;;;5.94;69.35
74218;BME280;62579;47.288;18.646;2023-03-01T09:18:44;100824.22;;;5.93;69.12
74218;BME280;62579;47.288;18.646;2023-03-01T09:21:15;100813.97;;;6.10;68.44
74218;BME280;62579;47.288;18.646;2023-03-01T09:23:44;100819.97;;;6.14;69.00
74218;BME280;62579;47.288;18.646;2023-03-01T09:26:14;100813.66;;;6.38;67.04
74218;BME280;62579;47.288;18.646;2023-03-01T09:34:02;100797.91;;;6.46;66.66
74218;BME280;62579;47.288;18.646;2023-03-01T09:36:27;100791.62;;;6.49;65.35
74218;BME280;62579;47.288;18.646;2023-03-01T09:38:52;100784.19;;;6.71;65.16
74218;BME280;62579;47.288;18.646;2023-03-01T10:21:17;100749.94;;;7.95;62.15
74218;BME280;62579;47.288;18.646;2023-03-01T10:23:43;100757.19;;;7.80;62.51
74218;BME280;62579;47.288;18.646;2023-03-01T10:28:52;100738.53;;;7.82;63.13
74218;BME280;62579;47.288;18.646;2023-03-01T10:31:25;100734.34;;;8.23;61.58
74218;BME280;62579;47.288;18.646;2023-03-01T10:33:55;100744.81;;;7.97;62.57
74218;BME280;62579;47.288;18.646;2023-03-01T10:36:23;100742.53;;;8.47;60.15
74218;BME280;62579;47.288;18.646;2023-03-01T10:41:19;100739.06;;;8.46;61.23
74218;BME280;62579;47.288;18.646;2023-03-01T10:43:47;100734.09;;;8.44;61.89
74218;BME280;62579;47.288;18.646;2023-03-01T10:46:31;100717.06;;;8.11;60.90
74218;BME280;62579;47.288;18.646;2023-03-01T10:49:21;100711.13;;;8.31;62.34
74218;BME280;62579;47.288;18.646;2023-03-01T10:51:49;100714.28;;;8.20;61.77
74218;BME280;62579;47.288;18.646;2023-03-01T10:54:30;100709.59;;;8.39;61.87
74218;BME280;62579;47.288;18.646;2023-03-01T10:56:58;100720.09;;;8.46;60.85
74218;BME280;62579;47.288;18.646;2023-03-01T10:59:29;100707.53;;;8.81;59.24
74218;BME280;62579;47.288;18.646;2023-03-01T11:02:20;100710.69;;;8.56;60.00
74218;BME280;62579;47.288;18.646;2023-03-01T11:05:02;100710.63;;;8.65;60.43
74218;BME280;62579;47.288;18.646;2023-03-01T11:07:28;100701.06;;;8.55;60.58
74218;BME280;62579;47.288;18.646;2023-03-01T11:09:54;100707.75;;;8.69;60.42
74218;BME280;62579;47.288;18.646;2023-03-01T11:12:20;100700.19;;;8.73;61.19
74218;BME280;62579;47.288;18.646;2023-03-01T11:14:55;100697.47;;;8.73;60.74
74218;BME280;62579;47.288;18.646;2023-03-01T11:22:51;100695.25;;;8.86;61.28
74218;BME280;62579;47.288;18.646;2023-03-01T11:25:23;100690.66;;;8.54;60.64
74218;BME280;62579;47.288;18.646;2023-03-01T11:27:49;100685.34;;;8.59;61.31
74218;BME280;62579;47.288;18.646;2023-03-01T11:30:22;100680.44;;;8.72;61.26
74218;BME280;62579;47.288;18.646;2023-03-01T11:35:34;100693.59;;;8.65;61.29
74218;BME280;62579;47.288;18.646;2023-03-01T11:40:50;100688.31;;;8.85;61.02
74218;BME280;62579;47.288;18.646;2023-03-01T11:43:23;100686.25;;;8.80;60.78
74218;BME280;62579;47.288;18.646;2023-03-01T11:48:44;100689.66;;;8.89;60.50
74218;BME280;62579;47.288;18.646;2023-03-01T11:51:20;100673.44;;;8.80;60.24
74218;BME280;62579;47.288;18.646;2023-03-01T11:54:00;100665.25;;;8.89;60.62
74218;BME280;62579;47.288;18.646;2023-03-01T11:56:43;100659.09;;;9.03;60.17
74218;BME280;62579;47.288;18.646;2023-03-01T11:59:42;100653.69;;;8.80;60.99
74218;BME280;62579;47.288;18.646;2023-03-01T12:05:07;100647.34;;;8.83;60.53
74218;BME280;62579;47.288;18.646;2023-03-01T12:13:40;100639.06;;;9.16;60.70
74218;BME280;62579;47.288;18.646;2023-03-01T12:19:04;100618.91;;;8.93;59.96
74218;BME280;62579;47.288;18.646;2023-03-01T12:22:58;100624.84;;;9.06;60.24
74218;BME280;62579;47.288;18.646;2023-03-01T12:25:04;100625.12;;;9.08;60.06
74218;BME280;62579;47.288;18.646;2023-03-01T12:30:32;100617.53;;;9.27;59.98
74218;BME280;62579;47.288;18.646;2023-03-01T12:44:06;100623.22;;;9.58;58.39
74218;BME280;62579;47.288;18.646;2023-03-01T12:46:41;100626.16;;;9.54;57.87
74218;BME280;62579;47.288;18.646;2023-03-01T12:49:16;100620.16;;;9.65;57.57
74218;BME280;62579;47.288;18.646;2023-03-01T12:51:58;100612.66;;;9.60;57.30
74218;BME280;62579;47.288;18.646;2023-03-01T12:54:29;100608.03;;;9.81;57.44
74218;BME280;62579;47.288;18.646;2023-03-01T12:56:57;100588.00;;;9.98;56.77
74218;BME280;62579;47.288;18.646;2023-03-01T13:00:10;100590.72;;;9.98;56.69
74218;BME280;62579;47.288;18.646;2023-03-01T13:02:47;100592.56;;;9.87;57.27
74218;BME280;62579;47.288;18.646;2023-03-01T13:08:35;100587.31;;;10.18;56.48
74218;BME280;62579;47.288;18.646;2023-03-01T13:11:03;100582.72;;;9.89;57.52
74218;BME280;62579;47.288;18.646;2023-03-01T13:13:30;100572.87;;;9.77;57.91
74218;BME280;62579;47.288;18.646;2023-03-01T13:15:56;100577.88;;;10.13;56.46
74218;BME280;62579;47.288;18.646;2023-03-01T13:20:53;100574.59;;;10.50;57.33
74218;BME280;62579;47.288;18.646;2023-03-01T13:26:11;100556.72;;;10.23;57.20
74218;BME280;62579;47.288;18.646;2023-03-01T13:28:38;100559.09;;;10.15;57.60
74218;BME280;62579;47.288;18.646;2023-03-01T13:33:52;100553.19;;;10.37;55.87
74218;BME280;62579;47.288;18.646;2023-03-01T13:36:48;100549.72;;;10.37;56.75
74218;BME280;62579;47.288;18.646;2023-03-01T13:41:51;100564.28;;;10.13;56.82
74218;BME280;62579;47.288;18.646;2023-03-01T13:46:52;100555.06;;;10.11;57.41
74218;BME280;62579;47.288;18.646;2023-03-01T13:49:20;100552.84;;;10.30;56.58
74218;BME280;62579;47.288;18.646;2023-03-01T13:51:47;100550.00;;;10.04;57.20
74218;BME280;62579;47.288;18.646;2023-03-01T13:54:15;100539.41;;;10.46;56.20
74218;BME280;62579;47.288;18.646;2023-03-01T13:56:41;100542.09;;;10.41;56.08
74218;BME280;62579;47.288;18.646;2023-03-01T13:59:17;100532.37;;;10.34;56.22
74218;BME280;62579;47.288;18.646;2023-03-01T14:01:43;100527.69;;;10.60;55.37
74218;BME280;62579;47.288;18.646;2023-03-01T14:04:44;100523.69;;;10.56;54.95
74218;BME280;62579;47.288;18.646;2023-03-01T14:07:22;100513.84;;;10.38;55.66
74218;BME280;62579;47.288;18.646;2023-03-01T14:09:53;100515.78;;;10.58;55.69
74218;BME280;62579;47.288;18.646;2023-03-01T14:15:14;100508.06;;;10.51;56.59
74218;BME280;62579;47.288;18.646;2023-03-01T14:18:23;100504.22;;;10.63;55.65
74218;BME280;62579;47.288;18.646;2023-03-01T14:20:51;100504.28;;;10.43;56.05
74218;BME280;62579;47.288;18.646;2023-03-01T14:23:22;100499.91;;;10.51;56.54
74218;BME280;62579;47.288;18.646;2023-03-01T14:25:53;100493.75;;;10.56;56.70
74218;BME280;62579;47.288;18.646;2023-03-01T14:28:20;100489.06;;;10.56;56.15
74218;BME280;62579;47.288;18.646;2023-03-01T14:30:48;100491.41;;;10.69;55.88
74218;BME280;62579;47.288;18.646;2023-03-01T14:33:28;100491.22;;;10.27;55.37
74218;BME280;62579;47.288;18.646;2023-03-01T14:35:59;100480.63;;;10.54;55.73
74218;BME280;62579;47.288;18.646;2023-03-01T14:38:31;100478.88;;;10.51;55.00
74218;BME280;62579;47.288;18.646;2023-03-01T14:41:00;100485.22;;;10.43;54.54
74218;BME280;62579;47.288;18.646;2023-03-01T14:43:28;100485.06;;;10.11;55.49
74218;BME280;62579;47.288;18.646;2023-03-01T14:45:55;100479.88;;;10.08;55.90
74218;BME280;62579;47.288;18.646;2023-03-01T14:48:20;100480.87;;;10.10;55.43
74218;BME280;62579;47.288;18.646;2023-03-01T14:50:46;100484.72;;;10.18;55.68
74218;BME280;62579;47.288;18.646;2023-03-01T14:53:20;100482.53;;;10.22;55.15
74218;BME280;62579;47.288;18.646;2023-03-01T14:55:50;100483.12;;;10.12;55.36